Airfield :
LOGIN :

Register | Disclaimer

   EN    FR    IT 

 










Legend :    VFR   Marginal VFR   IFR   Intensive IFR   Very Intensive IFR
Visi :
Ceiling :
>= 8 km
>= 3000ft
5 to 8 km
1000 to 3000 ft
1500m to 5 km
500 to 1000 ft
800 to 1500m
200 to 500 ft
< 800m
< 200 ft
Symbols :   Thunderstorms  Fog  Heavy snow  Heavy precipitations  Wind > 20 kt
SIGMETs :     Misc.  Thunderstorms  Icing  Turbulence  Mountain Waves  Volcanic Ashes






- Airport Elevation : 17 ft
- IATA code : MPL


LFMT - Montpellier Méditerranée

CURRENT METAR :
  • 030900Z AUTO 14006KT CAVOK 23/18 Q1009 NOSIG

EXPIRED METARs :
  • 030830Z AUTO 11004KT 060V160 CAVOK 22/19 Q1009 NOSIG
  • 030800Z AUTO 08003KT 030V130 9999 FEW013 22/19 Q1009 NOSIG
  • 030730Z AUTO 07004KT 030V110 9999 FEW006 SCT013 22/18 Q1010 NOSIG
  • 030700Z AUTO 05004KT 010V070 9999 BKN005 21/19 Q1010 BECMG NSC
  • 030630Z AUTO 04006KT 010V070 9000 OVC004 19/18 Q1010 BECMG NSC

TAF TAF LFMT
Valid from the 03 at 09:00 until the 04 at 09:00 UTC


030800Z 0309/0409 10005KT 9999 FEW013
BECMG 0310/0312 18014KT
BECMG 0322/0324 28010KT
PROB40
TEMPO 0321/0409 SHRA SCT045TCU BKN070
ATIS : +33 4 67 13 11 70



MET'MAP, your aeronautical weather chart ! - Copyright ORBIFLY December 2007 - Disclaimer

ORBIFLY MET'MAP TEAM :

Programming & Development : Alexandra Zaïnal
Concept & original design : Baudouin d'Aumeries
Assistance for programming : Marc-Olivier Méhu
Technical & hardware support : Manuel Goepfert

Contact : metmap@orbifly.com




SOURCES & CREDITS :

   NOAA